DBBB/COO METAR and TAF weather

Enter ICAO airport designator
Station Type Date Time Source
DBBB METAR 2019/04/25 12:00 UTC NOAA

DBBB 251200Z 22009KT 190V260 9999 SCT014 32/26 Q1011 NOSIG


Station Type Date Time Source
DBBB Decoded METAR 2019/04/25 12:00 UTC NOAA

Cotonou, Benin (DBBB) 06-21N 002-23E 9M
Apr 25, 2019 - 08:00 AM EDT / 2019.04.25 1200 UTC
Wind: from the SW (220 degrees) at 10 MPH (9 KT) (direction variable):0
Visibility: greater than 7 mile(s):0
Sky conditions: partly cloudy
Temperature: 89 F (32 C)
Heat index: 102.9 F (39.4 C):1
Dew Point: 78 F (26 C)
Relative Humidity: 70%
Pressure (altimeter): 29.85 in. Hg (1011 hPa)
ob: DBBB 251200Z 22009KT 190V260 9999 SCT014 32/26 Q1011 NOSIG
cycle: 12

Station Type Date Time Source
DBBB TAF 2019/04/25 12:21 UTC NOAA

TAF TAF COR DBBB 251100Z 2512/2618 22010KT 9999 SCT013
TEMPO 2513/2520 TS BKN012 FEW023CB PROB30
TEMPO 2523/2604 TS BKN010 FEW023CB

Example: see airport list